createdAt,value
2019-01-26T00:00:56.485Z,13.13
2019-01-26T00:03:27.475Z,10.60
2019-01-26T00:05:58.327Z,15.20
2019-01-26T00:08:29.098Z,11.73
2019-01-26T00:11:00.027Z,18.20
2019-01-26T00:13:30.906Z,11.87
2019-01-26T00:16:01.904Z,12.00
2019-01-26T00:18:33.282Z,10.90
2019-01-26T00:21:04.061Z,13.00
2019-01-26T00:23:34.970Z,12.07
2019-01-26T00:26:06.054Z,11.13
2019-01-26T00:28:36.914Z,11.30
2019-01-26T00:31:08.182Z,12.87
2019-01-26T00:33:43.112Z,13.90
2019-01-26T00:36:11.850Z,14.03
2019-01-26T00:38:42.715Z,14.70
2019-01-26T00:41:13.604Z,11.90
2019-01-26T00:43:44.505Z,13.77
2019-01-26T00:46:15.387Z,15.30
2019-01-26T00:48:46.204Z,10.70
2019-01-26T00:51:17.331Z,15.70
2019-01-26T00:53:48.146Z,13.63
2019-01-26T00:56:20.153Z,15.40
2019-01-26T00:58:51.056Z,13.70
2019-01-26T01:01:21.971Z,11.80
2019-01-26T01:03:52.858Z,13.03
2019-01-26T01:06:25.998Z,10.90
2019-01-26T01:08:56.546Z,11.43
2019-01-26T01:11:27.427Z,12.43
2019-01-26T01:13:58.258Z,8.53
2019-01-26T01:16:35.862Z,11.97
2019-01-26T01:19:03.223Z,16.57
2019-01-26T01:21:34.058Z,13.07
2019-01-26T01:24:04.841Z,13.07
2019-01-26T01:26:35.940Z,11.43
2019-01-26T01:29:06.955Z,9.63
2019-01-26T01:31:38.142Z,10.27
2019-01-26T01:34:09.005Z,14.40
2019-01-26T01:36:39.966Z,10.50
2019-01-26T01:39:11.012Z,13.33
2019-01-26T01:41:41.866Z,10.77
2019-01-26T01:44:12.746Z,10.57
2019-01-26T01:46:43.646Z,12.90
2019-01-26T01:49:14.477Z,14.90
2019-01-26T01:51:45.449Z,11.63
2019-01-26T01:54:16.207Z,9.90
2019-01-26T01:56:47.106Z,14.47
2019-01-26T01:59:17.978Z,14.23
2019-01-26T02:01:48.746Z,9.90
2019-01-26T02:04:19.562Z,10.67
2019-01-26T02:06:50.476Z,10.47
2019-01-26T02:09:21.358Z,12.33
2019-01-26T02:11:52.235Z,12.80
2019-01-26T02:14:23.090Z,13.20
2019-01-26T02:16:55.041Z,13.30
2019-01-26T02:19:25.930Z,9.67
2019-01-26T02:21:56.724Z,12.43
2019-01-26T02:24:27.368Z,13.60
2019-01-26T02:26:58.158Z,11.73
2019-01-26T02:29:29.046Z,12.40
2019-01-26T02:32:00.211Z,11.90
2019-01-26T02:34:30.952Z,14.03
2019-01-26T02:37:01.888Z,12.50
2019-01-26T02:39:32.688Z,11.53
2019-01-26T02:42:03.372Z,15.27
2019-01-26T02:44:34.165Z,10.53
2019-01-26T02:47:05.153Z,10.40
2019-01-26T02:49:36.079Z,11.77
2019-01-26T02:52:07.123Z,12.17
2019-01-26T02:54:38.025Z,13.17
2019-01-26T02:57:08.801Z,9.83
2019-01-26T02:59:39.694Z,11.37
2019-01-26T03:02:10.522Z,11.93
2019-01-26T03:04:41.394Z,13.57
2019-01-26T03:07:12.193Z,9.80
2019-01-26T03:09:43.073Z,11.17
2019-01-26T03:12:13.926Z,10.80
2019-01-26T03:14:44.707Z,12.43
2019-01-26T03:17:15.593Z,8.90
2019-01-26T03:19:46.518Z,9.73
2019-01-26T03:22:17.403Z,9.93
2019-01-26T03:24:48.600Z,8.97
2019-01-26T03:27:19.449Z,9.63
2019-01-26T03:29:50.239Z,11.83
2019-01-26T03:32:21.027Z,8.63
2019-01-26T03:34:51.811Z,13.80
2019-01-26T03:37:22.603Z,11.87
2019-01-26T03:39:53.381Z,10.37
2019-01-26T03:42:24.548Z,11.30
2019-01-26T03:44:55.265Z,7.77
2019-01-26T03:47:26.081Z,9.80
2019-01-26T03:49:57.982Z,8.10
2019-01-26T03:52:28.778Z,9.40
2019-01-26T03:54:59.717Z,7.87
2019-01-26T03:57:30.607Z,10.00
2019-01-26T04:00:01.713Z,12.03
2019-01-26T04:02:32.636Z,8.20
2019-01-26T04:05:03.465Z,7.60
2019-01-26T04:07:34.262Z,6.97
2019-01-26T04:10:05.572Z,7.73
2019-01-26T04:12:36.627Z,6.20
2019-01-26T04:15:08.717Z,8.93
2019-01-26T04:17:39.648Z,7.07
2019-01-26T04:20:12.702Z,9.17
2019-01-26T04:22:43.713Z,6.20
2019-01-26T04:25:14.662Z,7.37
2019-01-26T04:27:45.498Z,8.77
2019-01-26T04:30:18.297Z,11.43
2019-01-26T04:32:50.315Z,5.93
2019-01-26T04:35:21.290Z,7.53
2019-01-26T04:37:52.303Z,6.33
2019-01-26T04:40:23.207Z,6.80
2019-01-26T04:42:54.293Z,9.33
2019-01-26T04:45:25.558Z,7.20
2019-01-26T04:47:56.495Z,8.20
2019-01-26T04:50:27.372Z,9.43
2019-01-26T04:52:58.226Z,7.53
2019-01-26T04:55:29.109Z,7.13
2019-01-26T04:58:00.307Z,10.13
2019-01-26T05:00:31.474Z,7.23
2019-01-26T05:03:02.393Z,9.20
2019-01-26T05:05:33.278Z,8.07
2019-01-26T05:08:04.166Z,8.10
2019-01-26T05:10:35.081Z,9.80
2019-01-26T05:13:06.211Z,10.03
2019-01-26T05:15:36.925Z,9.20
2019-01-26T05:18:07.675Z,11.17
2019-01-26T05:20:38.492Z,11.77
2019-01-26T05:23:09.389Z,11.43
2019-01-26T05:25:40.315Z,10.80
2019-01-26T05:28:11.198Z,9.47
2019-01-26T05:30:42.157Z,9.57
2019-01-26T05:33:13.050Z,10.77
2019-01-26T05:35:43.822Z,17.43
2019-01-26T05:38:14.844Z,8.27
2019-01-26T05:40:46.822Z,9.47
2019-01-26T05:43:17.747Z,10.80
2019-01-26T05:45:48.645Z,9.83
2019-01-26T05:48:19.941Z,10.47
2019-01-26T05:50:50.787Z,9.73
2019-01-26T05:53:21.809Z,9.67
2019-01-26T05:55:52.595Z,9.97
2019-01-26T05:58:23.466Z,14.10
2019-01-26T06:00:54.233Z,9.50
2019-01-26T06:03:25.135Z,10.40
2019-01-26T06:05:56.045Z,12.17
2019-01-26T06:08:27.080Z,9.60
2019-01-26T06:10:57.918Z,11.53
2019-01-26T06:13:28.710Z,8.43
2019-01-26T06:15:59.455Z,16.53
2019-01-26T06:18:30.527Z,11.30
2019-01-26T06:21:01.431Z,8.50
2019-01-26T06:23:32.338Z,9.97
2019-01-26T06:26:03.245Z,13.17
2019-01-26T06:28:34.031Z,9.30
2019-01-26T06:31:04.882Z,11.37
2019-01-26T06:33:35.711Z,11.73
2019-01-26T06:36:06.763Z,10.47
2019-01-26T06:38:37.646Z,10.27
2019-01-26T06:41:08.529Z,9.37
2019-01-26T06:43:39.323Z,10.97
2019-01-26T06:46:10.105Z,11.77
2019-01-26T06:48:41.117Z,8.20
2019-01-26T06:51:12.017Z,10.13
2019-01-26T06:53:42.822Z,8.60
2019-01-26T06:56:13.588Z,10.00
2019-01-26T06:58:44.443Z,9.40
2019-01-26T07:01:15.322Z,9.30
2019-01-26T07:03:46.246Z,8.10
2019-01-26T07:06:31.687Z,9.60
2019-01-26T07:09:02.864Z,10.97
2019-01-26T07:11:34.850Z,9.37
2019-01-26T07:14:05.924Z,8.83
2019-01-26T07:16:36.526Z,8.10
2019-01-26T07:19:08.058Z,12.30
2019-01-26T07:21:38.946Z,8.20
2019-01-26T07:24:09.841Z,7.67
2019-01-26T07:26:40.623Z,12.33
2019-01-26T07:29:11.558Z,6.90
2019-01-26T07:31:42.259Z,8.00
2019-01-26T07:34:13.299Z,10.27
2019-01-26T07:36:44.173Z,12.53
2019-01-26T07:39:14.971Z,9.90
2019-01-26T07:41:45.737Z,8.73
2019-01-26T07:44:17.018Z,9.27
2019-01-26T07:46:47.866Z,9.37
2019-01-26T07:49:18.657Z,9.60
2019-01-26T07:51:49.870Z,6.90
2019-01-26T07:54:20.726Z,9.30
2019-01-26T07:56:51.541Z,8.70
2019-01-26T07:59:22.492Z,10.40
2019-01-26T08:01:53.250Z,8.13
2019-01-26T08:04:24.201Z,9.27
2019-01-26T08:06:55.088Z,8.13
2019-01-26T08:09:26.897Z,6.67
2019-01-26T08:11:57.699Z,9.33
2019-01-26T08:14:28.467Z,7.33
2019-01-26T08:16:59.257Z,9.53
2019-01-26T08:19:30.286Z,10.53
2019-01-26T08:22:01.234Z,5.77
2019-01-26T08:24:32.041Z,5.70
2019-01-26T08:27:02.911Z,6.37
2019-01-26T08:29:33.835Z,7.73
2019-01-26T08:32:04.681Z,7.57
2019-01-26T08:34:35.691Z,7.83
2019-01-26T08:37:06.593Z,5.20
2019-01-26T08:39:37.460Z,7.80
2019-01-26T08:42:08.584Z,8.13
2019-01-26T08:44:39.650Z,7.10
2019-01-26T08:47:10.451Z,6.90
2019-01-26T08:49:41.139Z,4.90
2019-01-26T08:52:11.919Z,7.80
2019-01-26T08:54:42.774Z,6.90
2019-01-26T08:57:13.657Z,7.47
2019-01-26T08:59:44.437Z,5.57
2019-01-26T09:02:32.177Z,4.90
2019-01-26T09:05:03.228Z,5.93
2019-01-26T09:07:34.057Z,6.03
2019-01-26T09:10:05.426Z,5.93
2019-01-26T09:12:36.190Z,4.20
2019-01-26T09:15:08.721Z,3.20
2019-01-26T09:17:39.532Z,5.73
2019-01-26T09:20:11.803Z,5.07
2019-01-26T09:22:42.542Z,4.10
2019-01-26T09:25:13.424Z,4.90
2019-01-26T09:27:44.273Z,4.07
2019-01-26T09:30:15.784Z,6.67
2019-01-26T09:32:46.700Z,4.20
2019-01-26T09:35:17.590Z,5.40
2019-01-26T09:37:48.438Z,4.23
2019-01-26T09:40:19.632Z,4.90
2019-01-26T09:42:50.686Z,10.70
2019-01-26T09:45:22.007Z,5.83
2019-01-26T09:47:52.481Z,6.17
2019-01-26T09:50:23.102Z,5.10
2019-01-26T09:52:54.827Z,4.33
2019-01-26T09:55:25.962Z,3.83
2019-01-26T09:57:56.602Z,6.07
2019-01-26T10:00:27.841Z,4.33
2019-01-26T10:02:58.750Z,3.30
2019-01-26T10:05:29.778Z,3.70
2019-01-26T10:08:00.662Z,4.13
2019-01-26T10:10:31.545Z,4.70
2019-01-26T10:13:02.335Z,3.80
2019-01-26T10:15:33.288Z,5.10
2019-01-26T10:18:04.585Z,6.13
2019-01-26T10:20:36.613Z,4.33
2019-01-26T10:23:07.490Z,4.23
2019-01-26T10:25:38.374Z,5.17
2019-01-26T10:28:09.257Z,3.87
2019-01-26T10:30:44.489Z,4.20
2019-01-26T10:33:15.340Z,4.77
2019-01-26T10:36:11.068Z,4.93
2019-01-26T10:38:46.710Z,5.67
2019-01-26T10:41:36.635Z,4.10
2019-01-26T10:44:08.150Z,3.97
2019-01-26T10:46:39.149Z,4.87
2019-01-26T10:49:09.954Z,4.07
2019-01-26T10:51:40.606Z,6.13
2019-01-26T10:54:11.489Z,4.30
2019-01-26T10:56:42.454Z,4.20
2019-01-26T10:59:13.403Z,4.80
2019-01-26T11:01:44.255Z,5.40
2019-01-26T11:04:15.144Z,6.30
2019-01-26T11:06:46.026Z,2.90
2019-01-26T11:09:16.848Z,3.93
2019-01-26T11:11:47.733Z,5.10
2019-01-26T11:14:18.624Z,4.10
2019-01-26T11:16:49.473Z,4.03
2019-01-26T11:19:20.297Z,4.87
2019-01-26T11:21:51.065Z,4.43
2019-01-26T11:24:21.939Z,3.93
2019-01-26T11:26:52.839Z,4.33
2019-01-26T11:29:23.741Z,5.93
2019-01-26T11:31:54.715Z,5.07
2019-01-26T11:34:25.581Z,3.70
2019-01-26T11:36:56.484Z,5.93
2019-01-26T11:39:27.254Z,3.60
2019-01-26T11:41:58.046Z,4.13
2019-01-26T11:44:28.967Z,4.77
2019-01-26T11:47:12.503Z,6.37
2019-01-26T11:49:51.575Z,4.60
2019-01-26T11:52:23.004Z,3.23
2019-01-26T11:55:04.780Z,5.30
2019-01-26T11:57:37.826Z,4.80
2019-01-26T12:00:59.573Z,4.70
2019-01-26T12:03:47.950Z,4.07
2019-01-26T12:06:26.423Z,3.43
2019-01-26T12:08:57.305Z,6.53
2019-01-26T12:11:28.190Z,5.23
2019-01-26T12:13:59.010Z,4.27
2019-01-26T12:16:29.861Z,3.57
2019-01-26T12:19:00.889Z,5.30
2019-01-26T12:21:31.672Z,7.93
2019-01-26T12:24:02.573Z,4.03
2019-01-26T12:26:33.419Z,3.97
2019-01-26T12:29:04.430Z,5.10
2019-01-26T12:31:35.290Z,5.07
2019-01-26T12:34:06.275Z,5.47
2019-01-26T12:36:37.213Z,3.57
2019-01-26T12:39:10.918Z,7.20
2019-01-26T12:41:42.872Z,7.70
2019-01-26T12:44:13.761Z,5.30
2019-01-26T12:46:44.675Z,6.10
2019-01-26T12:49:15.606Z,4.43
2019-01-26T12:51:46.496Z,6.67
2019-01-26T12:54:17.573Z,6.47
2019-01-26T12:56:49.102Z,5.93
2019-01-26T12:59:19.969Z,5.67
2019-01-26T13:01:50.894Z,6.23
2019-01-26T13:04:21.886Z,5.13
2019-01-26T13:06:52.941Z,4.60
2019-01-26T13:09:24.050Z,8.10
2019-01-26T13:11:54.814Z,4.90
2019-01-26T13:14:25.935Z,4.67
2019-01-26T13:16:56.831Z,6.47
2019-01-26T13:19:27.614Z,6.80
2019-01-26T13:21:58.369Z,5.67
2019-01-26T13:24:29.186Z,7.67
2019-01-26T13:26:59.970Z,7.23
2019-01-26T13:29:31.149Z,6.30
2019-01-26T13:32:02.023Z,5.27
2019-01-26T13:34:32.853Z,4.50
2019-01-26T13:37:03.625Z,7.13
2019-01-26T13:39:34.410Z,7.47
2019-01-26T13:42:05.611Z,5.27
2019-01-26T13:44:36.274Z,8.43
2019-01-26T13:47:07.248Z,6.17
2019-01-26T13:49:44.024Z,4.17
2019-01-26T13:52:10.897Z,6.37
2019-01-26T13:54:41.804Z,7.00
2019-01-26T13:57:12.564Z,3.93
2019-01-26T13:59:43.462Z,5.80
2019-01-26T14:02:14.148Z,6.43
2019-01-26T14:04:45.207Z,7.37
2019-01-26T14:07:16.076Z,6.80
2019-01-26T14:09:47.065Z,5.83
2019-01-26T14:12:18.043Z,6.10
2019-01-26T14:14:48.965Z,6.60
2019-01-26T14:17:20.436Z,6.33
2019-01-26T14:19:51.816Z,5.67
2019-01-26T14:22:22.545Z,6.87
2019-01-26T14:24:53.537Z,6.03
2019-01-26T14:27:24.447Z,5.80
2019-01-26T14:29:56.948Z,4.93
2019-01-26T14:32:27.944Z,6.10
2019-01-26T14:34:58.813Z,6.20
2019-01-26T14:37:29.702Z,4.23
2019-01-26T14:40:00.570Z,4.17
2019-01-26T14:42:31.409Z,6.43
2019-01-26T14:45:02.298Z,4.90
2019-01-26T14:47:33.187Z,5.10
2019-01-26T14:50:03.813Z,6.10
2019-01-26T14:52:34.284Z,5.73
2019-01-26T14:55:06.138Z,7.87
2019-01-26T14:57:37.043Z,4.70
2019-01-26T15:00:12.430Z,6.17
2019-01-26T15:02:43.317Z,6.37
2019-01-26T15:05:14.278Z,5.20
2019-01-26T15:07:45.159Z,5.87
2019-01-26T15:10:16.046Z,3.40
2019-01-26T15:12:46.975Z,5.20
2019-01-26T15:15:18.858Z,4.53
2019-01-26T15:17:49.774Z,6.80
2019-01-26T15:20:26.238Z,5.40
2019-01-26T15:22:57.177Z,5.70
2019-01-26T15:25:28.250Z,5.20
2019-01-26T15:27:59.261Z,5.47
2019-01-26T15:30:32.194Z,3.77
2019-01-26T15:33:03.049Z,7.90
2019-01-26T15:35:33.940Z,7.07
2019-01-26T15:38:05.955Z,5.07
2019-01-26T15:40:36.854Z,5.07
2019-01-26T15:43:07.757Z,7.53
2019-01-26T15:45:43.830Z,6.87
2019-01-26T15:48:15.644Z,6.30
2019-01-26T15:50:46.533Z,5.53
2019-01-26T15:53:17.521Z,5.00
2019-01-26T15:55:48.617Z,5.87
2019-01-26T15:58:20.430Z,6.13
2019-01-26T16:00:51.330Z,8.50
2019-01-26T16:03:22.130Z,8.10
2019-01-26T16:05:53.300Z,6.90
2019-01-26T16:08:24.935Z,6.60
2019-01-26T16:10:55.888Z,7.37
2019-01-26T16:13:26.767Z,15.43
2019-01-26T16:15:58.798Z,6.33
2019-01-26T16:18:29.972Z,6.50
2019-01-26T16:21:00.764Z,6.00
2019-01-26T16:23:31.703Z,15.73
2019-01-26T16:26:02.632Z,10.80
2019-01-26T16:28:33.989Z,7.13
2019-01-26T16:31:04.774Z,5.40
2019-01-26T16:33:35.670Z,4.50
2019-01-26T16:36:06.961Z,4.77
2019-01-26T16:38:37.751Z,19.30
2019-01-26T16:41:08.636Z,13.33
2019-01-26T16:43:39.605Z,58.87
2019-01-26T16:46:10.455Z,20.30
2019-01-26T16:48:41.453Z,20.00
2019-01-26T16:51:12.317Z,8.20
2019-01-26T16:53:43.204Z,6.93
2019-01-26T16:56:14.094Z,8.83
2019-01-26T16:58:44.927Z,5.53
2019-01-26T17:01:16.906Z,4.80
2019-01-26T17:03:47.859Z,4.80
2019-01-26T17:06:18.739Z,3.93
2019-01-26T17:08:49.729Z,4.23
2019-01-26T17:11:20.630Z,5.87
2019-01-26T17:13:51.703Z,5.30
2019-01-26T17:16:22.629Z,5.57
2019-01-26T17:18:53.601Z,5.97
2019-01-26T17:21:24.411Z,6.53
2019-01-26T17:23:55.417Z,5.33
2019-01-26T17:26:26.034Z,5.33
2019-01-26T17:28:56.851Z,4.63
2019-01-26T17:31:27.711Z,4.20
2019-01-26T17:33:58.691Z,3.50
2019-01-26T17:36:29.626Z,3.97
2019-01-26T17:39:00.702Z,3.43
2019-01-26T17:41:33.005Z,3.93
2019-01-26T17:44:03.794Z,7.33
2019-01-26T17:46:35.021Z,3.73
2019-01-26T17:49:06.310Z,4.60
2019-01-26T17:51:38.227Z,4.73
2019-01-26T17:54:09.498Z,6.37
2019-01-26T17:56:40.414Z,4.03
2019-01-26T17:59:11.393Z,3.60
2019-01-26T18:01:42.255Z,6.67
2019-01-26T18:04:13.149Z,3.20
2019-01-26T18:06:44.071Z,5.03
2019-01-26T18:09:15.029Z,2.83
2019-01-26T18:11:45.907Z,2.63
2019-01-26T18:14:16.774Z,3.33
2019-01-26T18:16:47.595Z,2.70
2019-01-26T18:19:18.365Z,2.77
2019-01-26T18:21:49.245Z,2.83
2019-01-26T18:24:19.947Z,3.17
2019-01-26T18:26:50.887Z,2.00
2019-01-26T18:29:21.895Z,2.30
2019-01-26T18:31:52.835Z,2.77
2019-01-26T18:34:23.799Z,14.07
2019-01-26T18:36:54.688Z,58.23
2019-01-26T18:39:26.524Z,22.70
2019-01-26T18:41:57.417Z,30.53
2019-01-26T18:44:28.302Z,20.63
2019-01-26T18:46:59.205Z,19.57
2019-01-26T18:49:30.261Z,5.90
2019-01-26T18:52:01.128Z,4.50
2019-01-26T18:54:31.998Z,4.13
2019-01-26T18:57:02.701Z,3.40
2019-01-26T18:59:33.486Z,2.80
2019-01-26T19:02:04.417Z,1.77
2019-01-26T19:04:46.418Z,2.27
2019-01-26T19:07:17.310Z,2.83
2019-01-26T19:09:48.602Z,6.13
2019-01-26T19:12:19.436Z,3.03
2019-01-26T19:14:50.317Z,2.60
2019-01-26T19:17:21.233Z,3.60
2019-01-26T19:19:52.095Z,2.97
2019-01-26T19:22:22.974Z,2.43
2019-01-26T19:24:53.897Z,2.80
2019-01-26T19:27:24.613Z,1.50
2019-01-26T19:29:55.518Z,1.70
2019-01-26T19:32:26.390Z,1.90
2019-01-26T19:34:57.416Z,2.50
2019-01-26T19:37:28.260Z,2.03
2019-01-26T19:39:59.162Z,2.70
2019-01-26T19:42:29.959Z,6.27
2019-01-26T19:45:00.857Z,3.80
2019-01-26T19:47:31.851Z,1.47
2019-01-26T19:50:02.815Z,1.93
2019-01-26T19:52:34.754Z,1.57
2019-01-26T19:55:06.122Z,2.57
2019-01-26T19:57:37.042Z,2.50
2019-01-26T20:00:08.311Z,1.63
2019-01-26T20:02:39.298Z,2.23
2019-01-26T20:05:11.820Z,1.70
2019-01-26T20:07:43.721Z,1.90
2019-01-26T20:10:15.277Z,5.13
2019-01-26T20:12:46.233Z,2.20
2019-01-26T20:15:19.265Z,1.90
2019-01-26T20:17:50.257Z,2.03
2019-01-26T20:20:23.617Z,2.40
2019-01-26T20:22:54.387Z,3.03
2019-01-26T20:25:25.258Z,2.93
2019-01-26T20:27:56.145Z,2.00
2019-01-26T20:30:29.618Z,2.67
2019-01-26T20:33:00.732Z,2.40
2019-01-26T20:35:31.632Z,4.53
2019-01-26T20:38:02.565Z,2.83
2019-01-26T20:40:33.503Z,2.10
2019-01-26T20:43:04.604Z,1.73
2019-01-26T20:45:35.775Z,2.37
2019-01-26T20:48:06.645Z,3.63
2019-01-26T20:50:37.405Z,3.20
2019-01-26T20:53:08.546Z,3.90
2019-01-26T20:55:39.505Z,4.23
2019-01-26T20:58:10.393Z,3.43
2019-01-26T21:00:41.244Z,6.40
2019-01-26T21:03:11.963Z,3.63
2019-01-26T21:05:42.965Z,1.93
2019-01-26T21:08:14.130Z,1.67
2019-01-26T21:10:45.109Z,2.23
2019-01-26T21:13:16.589Z,3.93
2019-01-26T21:15:47.596Z,2.40
2019-01-26T21:18:18.341Z,1.33
2019-01-26T21:20:49.354Z,1.20
2019-01-26T21:23:20.181Z,2.17
2019-01-26T21:25:51.179Z,3.13
2019-01-26T21:28:21.962Z,4.53
2019-01-26T21:30:52.849Z,2.70
2019-01-26T21:33:23.737Z,9.80
2019-01-26T21:35:54.949Z,4.83
2019-01-26T21:38:25.751Z,4.00
2019-01-26T21:40:56.694Z,3.30
2019-01-26T21:43:27.586Z,2.83
2019-01-26T21:45:58.293Z,2.47
2019-01-26T21:48:29.299Z,1.60
2019-01-26T21:51:00.250Z,3.17
2019-01-26T21:53:31.241Z,3.50
2019-01-26T21:56:02.432Z,4.10
2019-01-26T21:58:33.360Z,2.00
2019-01-26T22:01:04.408Z,1.70
2019-01-26T22:03:35.306Z,3.40
2019-01-26T22:06:06.434Z,1.60
2019-01-26T22:08:37.394Z,2.20
2019-01-26T22:11:08.354Z,3.20
2019-01-26T22:13:39.269Z,2.03
2019-01-26T22:16:10.438Z,3.57
2019-01-26T22:18:41.391Z,1.63
2019-01-26T22:21:12.451Z,2.30
2019-01-26T22:23:43.230Z,2.30
2019-01-26T22:26:14.195Z,1.27
2019-01-26T22:28:45.030Z,1.23
2019-01-26T22:31:15.999Z,1.73
2019-01-26T22:33:47.831Z,2.60
2019-01-26T22:36:18.619Z,1.40
2019-01-26T22:38:49.507Z,1.50
2019-01-26T22:41:20.531Z,1.50
2019-01-26T22:43:51.390Z,3.27
2019-01-26T22:46:22.246Z,1.23
2019-01-26T22:48:53.056Z,2.17
2019-01-26T22:51:24.126Z,1.93
2019-01-26T22:53:54.932Z,1.50
2019-01-26T22:56:25.786Z,1.47
2019-01-26T22:58:56.574Z,1.40
2019-01-26T23:01:33.620Z,1.20
2019-01-26T23:04:51.213Z,1.37
2019-01-26T23:07:49.548Z,1.87
2019-01-26T23:11:15.060Z,2.20
2019-01-26T23:14:32.686Z,1.60
2019-01-26T23:17:56.012Z,3.07
2019-01-26T23:20:45.153Z,1.57
2019-01-26T23:23:42.537Z,3.43
2019-01-26T23:26:51.018Z,1.80
2019-01-26T23:29:52.923Z,1.77
2019-01-26T23:32:23.860Z,2.07
2019-01-26T23:34:54.766Z,1.53
2019-01-26T23:37:25.567Z,1.80
2019-01-26T23:39:56.447Z,0.97
2019-01-26T23:42:27.357Z,1.67
2019-01-26T23:44:58.152Z,1.50
2019-01-26T23:47:29.150Z,1.10
2019-01-26T23:49:59.921Z,1.57
2019-01-26T23:52:31.164Z,1.30
2019-01-26T23:55:02.011Z,1.60
2019-01-26T23:57:32.796Z,1.77
